sensor_id;sensor_type;location;lat;lon;timestamp;pressure;altitude;pressure_sealevel;temperature;humidity
65019;BME280;66069;51.164;-114.452;2022-12-18T00:01:21;88202.59;;;19.00;38.98
65019;BME280;66069;51.164;-114.452;2022-12-18T00:03:48;88201.81;;;19.03;38.74
65019;BME280;66069;51.164;-114.452;2022-12-18T00:06:15;88203.34;;;19.00;38.78
65019;BME280;66069;51.164;-114.452;2022-12-18T00:08:43;88210.53;;;19.03;38.91
65019;BME280;66069;51.164;-114.452;2022-12-18T00:11:15;88206.72;;;19.04;38.65
65019;BME280;66069;51.164;-114.452;2022-12-18T00:13:42;88206.00;;;19.00;38.65
65019;BME280;66069;51.164;-114.452;2022-12-18T00:16:18;88211.31;;;19.00;38.51
65019;BME280;66069;51.164;-114.452;2022-12-18T00:18:49;88212.09;;;19.01;38.45
65019;BME280;66069;51.164;-114.452;2022-12-18T00:21:16;88214.69;;;19.04;38.68
65019;BME280;66069;51.164;-114.452;2022-12-18T00:23:44;88223.00;;;19.06;38.57
65019;BME280;66069;51.164;-114.452;2022-12-18T00:28:48;88222.97;;;19.10;38.63
65019;BME280;66069;51.164;-114.452;2022-12-18T00:31:17;88222.25;;;19.06;38.48
65019;BME280;66069;51.164;-114.452;2022-12-18T00:33:43;88216.66;;;19.00;38.42
65019;BME280;66069;51.164;-114.452;2022-12-18T00:36:23;88223.41;;;19.05;38.52
65019;BME280;66069;51.164;-114.452;2022-12-18T00:38:49;88209.09;;;18.99;38.58
65019;BME280;66069;51.164;-114.452;2022-12-18T00:41:17;88209.72;;;19.06;38.54
65019;BME280;66069;51.164;-114.452;2022-12-18T00:44:04;88211.63;;;19.06;38.40
65019;BME280;66069;51.164;-114.452;2022-12-18T00:46:31;88224.06;;;19.13;38.21
65019;BME280;66069;51.164;-114.452;2022-12-18T00:48:58;88204.41;;;19.06;38.55
65019;BME280;66069;51.164;-114.452;2022-12-18T00:51:24;88205.94;;;19.07;38.58
65019;BME280;66069;51.164;-114.452;2022-12-18T00:53:51;88218.75;;;19.13;38.20
65019;BME280;66069;51.164;-114.452;2022-12-18T00:56:17;88219.16;;;19.11;38.41
65019;BME280;66069;51.164;-114.452;2022-12-18T00:58:44;88209.44;;;19.01;38.42
65019;BME280;66069;51.164;-114.452;2022-12-18T01:01:13;88220.66;;;19.12;38.24
65019;BME280;66069;51.164;-114.452;2022-12-18T01:03:40;88225.59;;;19.14;38.50
65019;BME280;66069;51.164;-114.452;2022-12-18T01:06:11;88222.53;;;19.15;38.42
65019;BME280;66069;51.164;-114.452;2022-12-18T01:08:38;88216.88;;;19.13;38.21
65019;BME280;66069;51.164;-114.452;2022-12-18T01:11:18;88224.38;;;19.18;38.44
65019;BME280;66069;51.164;-114.452;2022-12-18T01:13:45;88224.78;;;19.17;38.47
65019;BME280;66069;51.164;-114.452;2022-12-18T01:16:13;88227.09;;;19.15;38.23
65019;BME280;66069;51.164;-114.452;2022-12-18T01:18:40;88233.56;;;19.14;38.29
65019;BME280;66069;51.164;-114.452;2022-12-18T01:21:14;88229.38;;;19.13;38.10
65019;BME280;66069;51.164;-114.452;2022-12-18T01:23:41;88232.81;;;19.13;38.36
65019;BME280;66069;51.164;-114.452;2022-12-18T01:26:15;88227.13;;;19.11;38.28
65019;BME280;66069;51.164;-114.452;2022-12-18T01:28:42;88230.09;;;19.17;38.42
65019;BME280;66069;51.164;-114.452;2022-12-18T01:31:24;88224.00;;;19.20;37.92
65019;BME280;66069;51.164;-114.452;2022-12-18T01:33:52;88223.56;;;19.21;38.06
65019;BME280;66069;51.164;-114.452;2022-12-18T01:36:27;88214.84;;;19.21;38.33
65019;BME280;66069;51.164;-114.452;2022-12-18T01:38:54;88221.72;;;19.18;38.23
65019;BME280;66069;51.164;-114.452;2022-12-18T01:41:24;88231.22;;;19.19;38.05
65019;BME280;66069;51.164;-114.452;2022-12-18T01:43:55;88237.66;;;19.18;38.17
65019;BME280;66069;51.164;-114.452;2022-12-18T01:46:26;88229.34;;;19.16;38.17
65019;BME280;66069;51.164;-114.452;2022-12-18T01:48:57;88239.53;;;19.21;38.05
65019;BME280;66069;51.164;-114.452;2022-12-18T01:51:24;88220.91;;;19.21;38.33
65019;BME280;66069;51.164;-114.452;2022-12-18T01:53:51;88220.84;;;19.25;38.32
65019;BME280;66069;51.164;-114.452;2022-12-18T01:56:20;88223.88;;;19.27;38.18
65019;BME280;66069;51.164;-114.452;2022-12-18T01:59:25;88231.84;;;19.27;38.11
65019;BME280;66069;51.164;-114.452;2022-12-18T02:01:45;88226.91;;;19.25;38.12
65019;BME280;66069;51.164;-114.452;2022-12-18T02:04:26;88233.41;;;19.24;38.07
65019;BME280;66069;51.164;-114.452;2022-12-18T02:09:33;88239.88;;;19.23;38.09
65019;BME280;66069;51.164;-114.452;2022-12-18T02:12:18;88252.75;;;19.25;38.08
65019;BME280;66069;51.164;-114.452;2022-12-18T02:20:49;88239.75;;;19.30;38.14
65019;BME280;66069;51.164;-114.452;2022-12-18T02:26:20;88251.97;;;19.28;38.11
65019;BME280;66069;51.164;-114.452;2022-12-18T02:29:02;88247.44;;;19.25;38.01
65019;BME280;66069;51.164;-114.452;2022-12-18T02:31:38;88236.25;;;19.10;37.85
65019;BME280;66069;51.164;-114.452;2022-12-18T02:34:07;88248.97;;;19.26;38.00
65019;BME280;66069;51.164;-114.452;2022-12-18T02:36:36;88246.69;;;19.24;38.02
65019;BME280;66069;51.164;-114.452;2022-12-18T02:39:05;88254.66;;;19.24;38.26
65019;BME280;66069;51.164;-114.452;2022-12-18T02:41:33;88260.66;;;19.32;37.90
65019;BME280;66069;51.164;-114.452;2022-12-18T02:44:08;88248.97;;;19.26;37.92
65019;BME280;66069;51.164;-114.452;2022-12-18T02:46:48;88255.72;;;19.30;37.89
65019;BME280;66069;51.164;-114.452;2022-12-18T02:55:11;88245.16;;;19.27;37.78
65019;BME280;66069;51.164;-114.452;2022-12-18T02:57:54;88240.16;;;19.29;37.86
65019;BME280;66069;51.164;-114.452;2022-12-18T03:00:23;88253.81;;;19.31;37.99
65019;BME280;66069;51.164;-114.452;2022-12-18T03:03:22;88254.56;;;19.31;38.02
65019;BME280;66069;51.164;-114.452;2022-12-18T03:05:55;88241.47;;;19.17;38.11
65019;BME280;66069;51.164;-114.452;2022-12-18T03:08:28;88255.03;;;19.26;37.88
65019;BME280;66069;51.164;-114.452;2022-12-18T03:13:31;88262.94;;;19.30;37.77
65019;BME280;66069;51.164;-114.452;2022-12-18T03:16:00;88244.78;;;19.25;37.70
65019;BME280;66069;51.164;-114.452;2022-12-18T03:21:16;88262.84;;;19.37;37.81
65019;BME280;66069;51.164;-114.452;2022-12-18T03:23:48;88256.75;;;19.36;37.62
65019;BME280;66069;51.164;-114.452;2022-12-18T03:26:23;88268.84;;;19.41;37.84
65019;BME280;66069;51.164;-114.452;2022-12-18T03:28:57;88264.69;;;19.40;37.90
65019;BME280;66069;51.164;-114.452;2022-12-18T03:31:28;88248.16;;;19.29;37.70
65019;BME280;66069;51.164;-114.452;2022-12-18T03:34:21;88262.50;;;19.35;37.66
65019;BME280;66069;51.164;-114.452;2022-12-18T03:36:49;88256.09;;;19.32;37.59
65019;BME280;66069;51.164;-114.452;2022-12-18T03:39:15;88251.16;;;19.31;37.76
65019;BME280;66069;51.164;-114.452;2022-12-18T03:42:32;88256.75;;;19.36;37.75
65019;BME280;66069;51.164;-114.452;2022-12-18T03:45:20;88257.47;;;19.41;37.66
65019;BME280;66069;51.164;-114.452;2022-12-18T03:48:05;88251.75;;;19.42;37.80
65019;BME280;66069;51.164;-114.452;2022-12-18T03:53:33;88254.41;;;19.42;37.78
65019;BME280;66069;51.164;-114.452;2022-12-18T03:56:03;88255.56;;;19.41;37.49
65019;BME280;66069;51.164;-114.452;2022-12-18T03:58:32;88256.75;;;19.36;37.71
65019;BME280;66069;51.164;-114.452;2022-12-18T04:01:02;88255.25;;;19.35;37.63
65019;BME280;66069;51.164;-114.452;2022-12-18T04:03:30;88242.03;;;19.32;37.59
65019;BME280;66069;51.164;-114.452;2022-12-18T04:05:59;88244.97;;;19.37;37.73
65019;BME280;66069;51.164;-114.452;2022-12-18T04:08:26;88245.63;;;19.45;37.63
65019;BME280;66069;51.164;-114.452;2022-12-18T04:10:53;88225.31;;;19.31;37.74
65019;BME280;66069;51.164;-114.452;2022-12-18T04:13:38;88249.03;;;19.46;37.66
65019;BME280;66069;51.164;-114.452;2022-12-18T04:16:05;88241.56;;;19.37;37.47
65019;BME280;66069;51.164;-114.452;2022-12-18T04:18:32;88250.25;;;19.41;37.38
65019;BME280;66069;51.164;-114.452;2022-12-18T04:20:58;88244.94;;;19.41;37.45
65019;BME280;66069;51.164;-114.452;2022-12-18T04:23:24;88250.25;;;19.41;37.42
65019;BME280;66069;51.164;-114.452;2022-12-18T04:25:54;88242.59;;;19.43;37.63
65019;BME280;66069;51.164;-114.452;2022-12-18T04:28:21;88238.81;;;19.44;37.62
65019;BME280;66069;51.164;-114.452;2022-12-18T04:30:47;88251.34;;;19.44;37.51
65019;BME280;66069;51.164;-114.452;2022-12-18T04:33:13;88254.28;;;19.49;37.51
65019;BME280;66069;51.164;-114.452;2022-12-18T04:35:40;88249.91;;;19.39;37.46
65019;BME280;66069;51.164;-114.452;2022-12-18T04:38:07;88249.84;;;19.43;37.36
65019;BME280;66069;51.164;-114.452;2022-12-18T04:40:37;88246.19;;;19.33;37.53
65019;BME280;66069;51.164;-114.452;2022-12-18T04:43:04;88266.53;;;19.43;37.47
65019;BME280;66069;51.164;-114.452;2022-12-18T04:45:34;88241.56;;;19.37;37.31
65019;BME280;66069;51.164;-114.452;2022-12-18T04:48:01;88248.34;;;19.42;37.53
65019;BME280;66069;51.164;-114.452;2022-12-18T04:50:28;88253.31;;;19.40;37.31
65019;BME280;66069;51.164;-114.452;2022-12-18T04:52:55;88248.84;;;19.33;37.34
65019;BME280;66069;51.164;-114.452;2022-12-18T04:55:21;88249.22;;;19.31;37.25
65019;BME280;66069;51.164;-114.452;2022-12-18T04:57:48;88271.28;;;19.32;37.42
65019;BME280;66069;51.164;-114.452;2022-12-18T05:00:14;88251.63;;;19.26;37.17
65019;BME280;66069;51.164;-114.452;2022-12-18T05:02:41;88250.84;;;19.25;37.24
65019;BME280;66069;51.164;-114.452;2022-12-18T05:05:08;88253.91;;;19.24;37.51
65019;BME280;66069;51.164;-114.452;2022-12-18T05:07:34;88253.56;;;19.22;37.11
65019;BME280;66069;51.164;-114.452;2022-12-18T05:10:01;88243.72;;;19.19;37.21
65019;BME280;66069;51.164;-114.452;2022-12-18T05:12:27;88254.44;;;19.15;37.14
65019;BME280;66069;51.164;-114.452;2022-12-18T05:14:54;88221.31;;;18.93;37.17
65019;BME280;66069;51.164;-114.452;2022-12-18T05:17:20;88247.34;;;19.05;37.08
65019;BME280;66069;51.164;-114.452;2022-12-18T05:19:46;88251.13;;;19.07;37.27
65019;BME280;66069;51.164;-114.452;2022-12-18T05:22:13;88252.31;;;19.03;37.08
65019;BME280;66069;51.164;-114.452;2022-12-18T05:24:39;88248.53;;;19.00;37.05
65019;BME280;66069;51.164;-114.452;2022-12-18T05:27:05;88242.63;;;18.89;37.13
65019;BME280;66069;51.164;-114.452;2022-12-18T05:29:32;88247.53;;;18.91;37.02
65019;BME280;66069;51.164;-114.452;2022-12-18T05:31:58;88255.50;;;18.91;37.23
65019;BME280;66069;51.164;-114.452;2022-12-18T05:34:24;88243.50;;;18.79;36.85
65019;BME280;66069;51.164;-114.452;2022-12-18T05:36:51;88247.25;;;18.81;37.20
65019;BME280;66069;51.164;-114.452;2022-12-18T05:39:17;88257.13;;;18.81;37.25
65019;BME280;66069;51.164;-114.452;2022-12-18T05:41:43;88255.72;;;18.73;37.00
65019;BME280;66069;51.164;-114.452;2022-12-18T05:44:10;88258.78;;;18.71;37.05
65019;BME280;66069;51.164;-114.452;2022-12-18T05:46:36;88258.03;;;18.71;37.15
65019;BME280;66069;51.164;-114.452;2022-12-18T05:49:02;88263.38;;;18.67;37.18
65019;BME280;66069;51.164;-114.452;2022-12-18T05:51:29;88223.81;;;18.42;37.09
65019;BME280;66069;51.164;-114.452;2022-12-18T05:53:55;88248.34;;;18.53;37.19
65019;BME280;66069;51.164;-114.452;2022-12-18T05:56:22;88259.72;;;18.54;37.03
65019;BME280;66069;51.164;-114.452;2022-12-18T05:58:52;88259.41;;;18.48;37.12
65019;BME280;66069;51.164;-114.452;2022-12-18T06:01:22;88265.47;;;18.49;37.13
65019;BME280;66069;51.164;-114.452;2022-12-18T06:03:49;88262.88;;;18.45;37.00
65019;BME280;66069;51.164;-114.452;2022-12-18T06:06:23;88241.44;;;18.29;37.14
65019;BME280;66069;51.164;-114.452;2022-12-18T06:08:51;88255.38;;;18.37;37.20
65019;BME280;66069;51.164;-114.452;2022-12-18T06:11:20;88265.59;;;18.38;37.04
65019;BME280;66069;51.164;-114.452;2022-12-18T06:13:50;88266.38;;;18.35;37.13
65019;BME280;66069;51.164;-114.452;2022-12-18T06:16:17;88256.28;;;18.23;37.11
65019;BME280;66069;51.164;-114.452;2022-12-18T06:18:43;88217.56;;;17.91;37.09
65019;BME280;66069;51.164;-114.452;2022-12-18T06:21:10;88257.13;;;18.13;36.99
65019;BME280;66069;51.164;-114.452;2022-12-18T06:23:36;88278.25;;;18.23;37.16
65019;BME280;66069;51.164;-114.452;2022-12-18T06:26:11;88279.81;;;18.21;37.23
65019;BME280;66069;51.164;-114.452;2022-12-18T06:28:37;88287.81;;;18.17;36.96
65019;BME280;66069;51.164;-114.452;2022-12-18T06:31:05;88281.41;;;18.15;37.17
65019;BME280;66069;51.164;-114.452;2022-12-18T06:33:32;88289.38;;;18.11;37.07
65019;BME280;66069;51.164;-114.452;2022-12-18T06:36:12;88269.41;;;17.99;37.37
65019;BME280;66069;51.164;-114.452;2022-12-18T06:38:41;88275.47;;;18.00;37.17
65019;BME280;66069;51.164;-114.452;2022-12-18T06:41:14;88260.47;;;17.83;37.22
65019;BME280;66069;51.164;-114.452;2022-12-18T06:43:41;88286.47;;;17.98;37.01
65019;BME280;66069;51.164;-114.452;2022-12-18T06:46:08;88277.06;;;17.90;36.95
65019;BME280;66069;51.164;-114.452;2022-12-18T06:48:35;88277.44;;;17.92;37.15
65019;BME280;66069;51.164;-114.452;2022-12-18T06:51:01;88284.28;;;17.90;37.32
65019;BME280;66069;51.164;-114.452;2022-12-18T06:53:28;88280.50;;;17.87;37.09
65019;BME280;66069;51.164;-114.452;2022-12-18T06:56:02;88273.03;;;17.75;37.08
65019;BME280;66069;51.164;-114.452;2022-12-18T06:58:29;88280.97;;;17.79;37.10
65019;BME280;66069;51.164;-114.452;2022-12-18T07:01:04;88263.25;;;17.65;37.05
65019;BME280;66069;51.164;-114.452;2022-12-18T07:03:31;88290.09;;;17.74;37.23
65019;BME280;66069;51.164;-114.452;2022-12-18T07:05:57;88265.97;;;17.58;37.17
65019;BME280;66069;51.164;-114.452;2022-12-18T07:08:24;88288.63;;;17.66;37.21
65019;BME280;66069;51.164;-114.452;2022-12-18T07:10:50;88279.53;;;17.63;37.08
65019;BME280;66069;51.164;-114.452;2022-12-18T07:13:17;88291.66;;;17.64;37.07
65019;BME280;66069;51.164;-114.452;2022-12-18T07:15:43;88295.09;;;17.61;37.19
65019;BME280;66069;51.164;-114.452;2022-12-18T07:18:10;88290.59;;;17.55;37.11
65019;BME280;66069;51.164;-114.452;2022-12-18T07:20:37;88302.72;;;17.56;37.17
65019;BME280;66069;51.164;-114.452;2022-12-18T07:23:04;88306.91;;;17.53;37.24
65019;BME280;66069;51.164;-114.452;2022-12-18T07:25:34;88311.06;;;17.50;37.19
65019;BME280;66069;51.164;-114.452;2022-12-18T07:28:01;88294.50;;;17.39;37.25
65019;BME280;66069;51.164;-114.452;2022-12-18T07:30:27;88303.94;;;17.44;37.08
65019;BME280;66069;51.164;-114.452;2022-12-18T07:32:53;88302.41;;;17.43;37.16
65019;BME280;66069;51.164;-114.452;2022-12-18T07:35:20;88291.13;;;17.32;37.19
65019;BME280;66069;51.164;-114.452;2022-12-18T07:37:46;88303.97;;;17.37;37.26
65019;BME280;66069;51.164;-114.452;2022-12-18T07:40:13;88301.38;;;17.33;37.21
65019;BME280;66069;51.164;-114.452;2022-12-18T07:42:39;88297.59;;;17.31;37.06
65019;BME280;66069;51.164;-114.452;2022-12-18T07:45:06;88293.84;;;17.25;37.12
65019;BME280;66069;51.164;-114.452;2022-12-18T07:47:34;88299.88;;;17.25;37.25
65019;BME280;66069;51.164;-114.452;2022-12-18T07:50:03;88298.03;;;17.22;37.20
65019;BME280;66069;51.164;-114.452;2022-12-18T07:52:30;88286.72;;;17.11;37.10
65019;BME280;66069;51.164;-114.452;2022-12-18T07:54:56;88279.88;;;17.17;37.13
65019;BME280;66069;51.164;-114.452;2022-12-18T07:57:23;88266.00;;;16.95;37.12
65019;BME280;66069;51.164;-114.452;2022-12-18T07:59:49;88287.50;;;17.11;37.11
65019;BME280;66069;51.164;-114.452;2022-12-18T08:02:15;88289.41;;;17.07;37.25
65019;BME280;66069;51.164;-114.452;2022-12-18T08:04:42;88282.25;;;17.01;37.06
65019;BME280;66069;51.164;-114.452;2022-12-18T08:07:08;88281.13;;;16.94;37.12
65019;BME280;66069;51.164;-114.452;2022-12-18T08:09:35;88289.44;;;17.00;37.19
65019;BME280;66069;51.164;-114.452;2022-12-18T08:12:01;88293.97;;;17.00;37.14
65019;BME280;66069;51.164;-114.452;2022-12-18T08:14:28;88289.47;;;16.97;37.20
65019;BME280;66069;51.164;-114.452;2022-12-18T08:16:54;88255.94;;;16.65;37.21
65019;BME280;66069;51.164;-114.452;2022-12-18T08:19:20;88296.69;;;16.92;37.14
65019;BME280;66069;51.164;-114.452;2022-12-18T08:21:47;88295.94;;;16.88;37.22
65019;BME280;66069;51.164;-114.452;2022-12-18T08:24:13;88294.06;;;16.85;37.27
65019;BME280;66069;51.164;-114.452;2022-12-18T08:26:39;88288.78;;;16.82;37.14
65019;BME280;66069;51.164;-114.452;2022-12-18T08:29:06;88283.50;;;16.78;37.12
65019;BME280;66069;51.164;-114.452;2022-12-18T08:31:32;88292.22;;;16.79;37.19
65019;BME280;66069;51.164;-114.452;2022-12-18T08:33:58;88286.16;;;16.75;37.05
65019;BME280;66069;51.164;-114.452;2022-12-18T08:36:25;88282.03;;;16.74;37.19
65019;BME280;66069;51.164;-114.452;2022-12-18T08:38:52;88289.19;;;16.69;37.17
65019;BME280;66069;51.164;-114.452;2022-12-18T08:41:20;88281.63;;;16.68;37.21
65019;BME280;66069;51.164;-114.452;2022-12-18T08:43:46;88271.47;;;16.59;37.31
65019;BME280;66069;51.164;-114.452;2022-12-18T08:46:35;88266.22;;;16.52;37.31
65019;BME280;66069;51.164;-114.452;2022-12-18T08:49:02;88290.75;;;16.60;37.39
65019;BME280;66069;51.164;-114.452;2022-12-18T08:51:29;88281.66;;;16.57;37.32
65019;BME280;66069;51.164;-114.452;2022-12-18T08:53:55;88247.75;;;16.34;37.25
65019;BME280;66069;51.164;-114.452;2022-12-18T08:56:22;88261.75;;;16.35;37.27
65019;BME280;66069;51.164;-114.452;2022-12-18T08:58:52;88285.84;;;16.51;37.37
65019;BME280;66069;51.164;-114.452;2022-12-18T09:01:19;88283.59;;;16.50;37.33
65019;BME280;66069;51.164;-114.452;2022-12-18T09:03:45;88289.69;;;16.47;37.19
65019;BME280;66069;51.164;-114.452;2022-12-18T09:06:14;88284.00;;;16.45;37.21
65019;BME280;66069;51.164;-114.452;2022-12-18T09:08:42;88288.19;;;16.38;37.35
65019;BME280;66069;51.164;-114.452;2022-12-18T09:11:14;88294.97;;;16.39;37.28
65019;BME280;66069;51.164;-114.452;2022-12-18T09:13:41;88294.25;;;16.35;37.22
65019;BME280;66069;51.164;-114.452;2022-12-18T09:16:07;88301.44;;;16.35;37.34
65019;BME280;66069;51.164;-114.452;2022-12-18T09:18:34;88294.25;;;16.32;37.15
65019;BME280;66069;51.164;-114.452;2022-12-18T09:21:07;88295.78;;;16.29;37.31
65019;BME280;66069;51.164;-114.452;2022-12-18T09:23:33;88296.56;;;16.23;37.35
65019;BME280;66069;51.164;-114.452;2022-12-18T09:26:00;88297.31;;;16.23;37.21
65019;BME280;66069;51.164;-114.452;2022-12-18T09:28:26;88306.00;;;16.24;37.47
65019;BME280;66069;51.164;-114.452;2022-12-18T09:30:53;88310.19;;;16.21;37.35
65019;BME280;66069;51.164;-114.452;2022-12-18T09:33:19;88306.38;;;16.19;37.30
65019;BME280;66069;51.164;-114.452;2022-12-18T09:35:46;88295.81;;;16.08;37.40
65019;BME280;66069;51.164;-114.452;2022-12-18T09:38:15;88301.47;;;16.13;37.27
65019;BME280;66069;51.164;-114.452;2022-12-18T09:40:45;88292.06;;;16.02;37.26
65019;BME280;66069;51.164;-114.452;2022-12-18T09:43:27;88303.78;;;16.04;37.36
65019;BME280;66069;51.164;-114.452;2022-12-18T09:45:59;88320.00;;;16.06;37.44
65019;BME280;66069;51.164;-114.452;2022-12-18T09:48:54;88322.28;;;16.01;37.20
65019;BME280;66069;51.164;-114.452;2022-12-18T09:51:28;88317.00;;;15.94;37.43
65019;BME280;66069;51.164;-114.452;2022-12-18T09:54:03;88317.00;;;15.94;37.22
65019;BME280;66069;51.164;-114.452;2022-12-18T09:56:35;88338.53;;;15.88;37.10
65019;BME280;66069;51.164;-114.452;2022-12-18T09:59:04;88327.97;;;15.96;37.58
65019;BME280;66069;51.164;-114.452;2022-12-18T10:01:32;88333.28;;;15.92;37.23
65019;BME280;66069;51.164;-114.452;2022-12-18T10:03:59;88317.44;;;15.78;37.26
65019;BME280;66069;51.164;-114.452;2022-12-18T10:06:41;88338.56;;;15.85;37.30
65019;BME280;66069;51.164;-114.452;2022-12-18T10:09:33;88326.88;;;15.72;37.46
65019;BME280;66069;51.164;-114.452;2022-12-18T10:15:11;88349.53;;;15.80;37.52
65019;BME280;66069;51.164;-114.452;2022-12-18T10:17:51;88339.69;;;15.70;37.45
65019;BME280;66069;51.164;-114.452;2022-12-18T10:20:49;88351.41;;;15.76;37.43
65019;BME280;66069;51.164;-114.452;2022-12-18T10:23:27;88348.78;;;15.72;37.28
65019;BME280;66069;51.164;-114.452;2022-12-18T10:28:23;88332.13;;;15.57;37.33
65019;BME280;66069;51.164;-114.452;2022-12-18T10:30:49;88358.22;;;15.66;37.46
65019;BME280;66069;51.164;-114.452;2022-12-18T10:33:23;88335.53;;;15.54;37.16
65019;BME280;66069;51.164;-114.452;2022-12-18T10:35:51;88359.31;;;15.61;37.38
65019;BME280;66069;51.164;-114.452;2022-12-18T10:41:05;88358.53;;;15.57;37.45
65019;BME280;66069;51.164;-114.452;2022-12-18T10:43:33;88349.50;;;15.55;37.47
65019;BME280;66069;51.164;-114.452;2022-12-18T10:49:00;88359.28;;;15.51;37.39
65019;BME280;66069;51.164;-114.452;2022-12-18T10:51:34;88347.59;;;15.48;37.69
65019;BME280;66069;51.164;-114.452;2022-12-18T10:54:05;88340.06;;;15.47;37.51
65019;BME280;66069;51.164;-114.452;2022-12-18T10:56:34;88342.31;;;15.41;37.35
65019;BME280;66069;51.164;-114.452;2022-12-18T10:59:03;88345.31;;;15.43;37.45
65019;BME280;66069;51.164;-114.452;2022-12-18T11:01:53;88352.47;;;15.39;37.42
65019;BME280;66069;51.164;-114.452;2022-12-18T11:04:31;88355.50;;;15.38;37.34
65019;BME280;66069;51.164;-114.452;2022-12-18T11:09:31;88338.88;;;15.33;37.31
65019;BME280;66069;51.164;-114.452;2022-12-18T11:12:01;88332.09;;;15.22;37.42
65019;BME280;66069;51.164;-114.452;2022-12-18T11:14:33;88344.94;;;15.30;37.13
65019;BME280;66069;51.164;-114.452;2022-12-18T11:17:01;88321.88;;;15.06;37.35
65019;BME280;66069;51.164;-114.452;2022-12-18T11:19:38;88337.38;;;15.25;37.23
65019;BME280;66069;51.164;-114.452;2022-12-18T11:22:20;88336.25;;;15.23;37.35
65019;BME280;66069;51.164;-114.452;2022-12-18T11:25:03;88341.13;;;15.21;37.42
65019;BME280;66069;51.164;-114.452;2022-12-18T11:27:31;88338.50;;;15.17;37.29
65019;BME280;66069;51.164;-114.452;2022-12-18T11:30:22;88347.56;;;15.16;37.46
65019;BME280;66069;51.164;-114.452;2022-12-18T11:33:13;88354.72;;;15.16;37.47
65019;BME280;66069;51.164;-114.452;2022-12-18T11:35:50;88348.31;;;15.13;37.12
65019;BME280;66069;51.164;-114.452;2022-12-18T11:38:24;88350.56;;;15.11;37.66
65019;BME280;66069;51.164;-114.452;2022-12-18T11:41:29;88337.34;;;15.07;37.57
65019;BME280;66069;51.164;-114.452;2022-12-18T11:44:25;88324.50;;;14.99;37.48
65019;BME280;66069;51.164;-114.452;2022-12-18T11:47:00;88318.06;;;14.89;37.52
65019;BME280;66069;51.164;-114.452;2022-12-18T11:49:33;88313.53;;;14.86;37.71
65019;BME280;66069;51.164;-114.452;2022-12-18T11:54:36;88299.91;;;14.70;37.31
65019;BME280;66069;51.164;-114.452;2022-12-18T11:57:24;88339.22;;;14.93;37.55
65019;BME280;66069;51.164;-114.452;2022-12-18T12:08:33;88345.97;;;14.87;37.49
65019;BME280;66069;51.164;-114.452;2022-12-18T12:27:38;88348.66;;;15.01;37.34
65019;BME280;66069;51.164;-114.452;2022-12-18T12:30:08;88349.81;;;15.11;37.17
65019;BME280;66069;51.164;-114.452;2022-12-18T12:41:04;88338.91;;;15.41;37.48
65019;BME280;66069;51.164;-114.452;2022-12-18T12:46:00;88344.59;;;15.53;37.90
65019;BME280;66069;51.164;-114.452;2022-12-18T12:51:24;88337.81;;;15.74;37.99
65019;BME280;66069;51.164;-114.452;2022-12-18T12:53:52;88348.00;;;15.82;38.17
65019;BME280;66069;51.164;-114.452;2022-12-18T12:56:20;88338.94;;;15.87;38.34
65019;BME280;66069;51.164;-114.452;2022-12-18T12:59:04;88333.25;;;15.99;38.42
65019;BME280;66069;51.164;-114.452;2022-12-18T13:01:59;88338.53;;;16.10;38.22
65019;BME280;66069;51.164;-114.452;2022-12-18T13:07:34;88326.03;;;16.21;38.31
65019;BME280;66069;51.164;-114.452;2022-12-18T13:10:24;88345.28;;;16.36;38.41
65019;BME280;66069;51.164;-114.452;2022-12-18T13:15:26;88350.91;;;16.52;38.56
65019;BME280;66069;51.164;-114.452;2022-12-18T13:20:41;88361.06;;;16.68;38.58
65019;BME280;66069;51.164;-114.452;2022-12-18T13:31:04;88356.44;;;16.93;38.27
65019;BME280;66069;51.164;-114.452;2022-12-18T13:33:37;88368.16;;;17.03;38.48
65019;BME280;66069;51.164;-114.452;2022-12-18T13:38:39;88376.78;;;17.21;38.39
65019;BME280;66069;51.164;-114.452;2022-12-18T13:43:51;88378.94;;;17.37;38.17
65019;BME280;66069;51.164;-114.452;2022-12-18T13:51:44;88348.69;;;17.35;38.02
65019;BME280;66069;51.164;-114.452;2022-12-18T13:54:34;88386.34;;;17.67;38.09
65019;BME280;66069;51.164;-114.452;2022-12-18T13:57:03;88393.53;;;17.74;38.18
65019;BME280;66069;51.164;-114.452;2022-12-18T13:59:38;88380.59;;;17.80;38.26
65019;BME280;66069;51.164;-114.452;2022-12-18T14:02:25;88383.59;;;17.89;38.23
65019;BME280;66069;51.164;-114.452;2022-12-18T14:04:52;88380.91;;;17.92;37.92
65019;BME280;66069;51.164;-114.452;2022-12-18T14:07:22;88380.47;;;17.97;38.11
65019;BME280;66069;51.164;-114.452;2022-12-18T14:09:57;88367.63;;;17.96;38.16
65019;BME280;66069;51.164;-114.452;2022-12-18T14:12:33;88372.41;;;18.12;37.90
65019;BME280;66069;51.164;-114.452;2022-12-18T14:15:40;88376.47;;;18.23;38.03
65019;BME280;66069;51.164;-114.452;2022-12-18T14:21:00;88381.66;;;18.38;37.93
65019;BME280;66069;51.164;-114.452;2022-12-18T14:23:41;88370.59;;;18.43;38.05
65019;BME280;66069;51.164;-114.452;2022-12-18T14:26:27;88370.91;;;18.52;37.93
65019;BME280;66069;51.164;-114.452;2022-12-18T14:28:56;88348.59;;;18.46;38.03
65019;BME280;66069;51.164;-114.452;2022-12-18T14:31:27;88376.47;;;18.65;37.86
65019;BME280;66069;51.164;-114.452;2022-12-18T14:33:54;88362.81;;;18.63;38.02
65019;BME280;66069;51.164;-114.452;2022-12-18T14:36:26;88373.72;;;18.75;37.79
65019;BME280;66069;51.164;-114.452;2022-12-18T14:38:59;88377.81;;;18.83;37.78
65019;BME280;66069;51.164;-114.452;2022-12-18T14:41:26;88383.44;;;18.89;37.83
65019;BME280;66069;51.164;-114.452;2022-12-18T14:43:54;88371.25;;;18.92;37.82